sensor_id;sensor_type;location;lat;lon;timestamp;P1;durP1;ratioP1;P2;durP2;ratioP2
60372;SDS011;46216;52.220;5.134;2023-05-16T00:01:07;12.02;;;2.00;;
60372;SDS011;46216;52.220;5.134;2023-05-16T00:03:33;8.52;;;2.15;;
60372;SDS011;46216;52.220;5.134;2023-05-16T00:05:58;10.38;;;2.30;;
60372;SDS011;46216;52.220;5.134;2023-05-16T00:08:26;10.23;;;2.08;;
60372;SDS011;46216;52.220;5.134;2023-05-16T00:10:52;8.63;;;1.92;;
60372;SDS011;46216;52.220;5.134;2023-05-16T00:13:17;13.27;;;1.85;;
60372;SDS011;46216;52.220;5.134;2023-05-16T00:15:48;10.82;;;1.70;;
60372;SDS011;46216;52.220;5.134;2023-05-16T00:18:17;10.88;;;2.40;;
60372;SDS011;46216;52.220;5.134;2023-05-16T00:20:43;8.50;;;2.20;;
60372;SDS011;46216;52.220;5.134;2023-05-16T00:23:09;13.63;;;2.42;;
60372;SDS011;46216;52.220;5.134;2023-05-16T00:25:34;12.38;;;2.38;;
60372;SDS011;46216;52.220;5.134;2023-05-16T00:28:00;11.32;;;2.00;;
60372;SDS011;46216;52.220;5.134;2023-05-16T00:30:26;10.60;;;2.25;;
60372;SDS011;46216;52.220;5.134;2023-05-16T00:32:51;15.10;;;2.10;;
60372;SDS011;46216;52.220;5.134;2023-05-16T00:35:18;12.73;;;2.30;;
60372;SDS011;46216;52.220;5.134;2023-05-16T00:37:43;13.90;;;2.55;;
60372;SDS011;46216;52.220;5.134;2023-05-16T00:40:09;11.70;;;2.30;;
60372;SDS011;46216;52.220;5.134;2023-05-16T00:42:35;11.32;;;2.17;;
60372;SDS011;46216;52.220;5.134;2023-05-16T00:45:00;15.93;;;2.38;;
60372;SDS011;46216;52.220;5.134;2023-05-16T00:47:25;10.80;;;2.13;;
60372;SDS011;46216;52.220;5.134;2023-05-16T00:49:51;13.70;;;2.28;;
60372;SDS011;46216;52.220;5.134;2023-05-16T00:52:16;13.32;;;2.28;;
60372;SDS011;46216;52.220;5.134;2023-05-16T00:54:42;15.00;;;2.40;;
60372;SDS011;46216;52.220;5.134;2023-05-16T00:57:07;10.15;;;2.13;;
60372;SDS011;46216;52.220;5.134;2023-05-16T00:59:33;7.20;;;1.90;;
60372;SDS011;46216;52.220;5.134;2023-05-16T01:01:59;14.55;;;2.20;;
60372;SDS011;46216;52.220;5.134;2023-05-16T01:04:24;10.85;;;1.95;;
60372;SDS011;46216;52.220;5.134;2023-05-16T01:06:52;11.80;;;2.30;;
60372;SDS011;46216;52.220;5.134;2023-05-16T01:09:19;15.02;;;2.15;;
60372;SDS011;46216;52.220;5.134;2023-05-16T01:11:47;9.38;;;1.98;;
60372;SDS011;46216;52.220;5.134;2023-05-16T01:17:26;9.65;;;1.85;;
60372;SDS011;46216;52.220;5.134;2023-05-16T01:20:20;10.10;;;1.92;;
60372;SDS011;46216;52.220;5.134;2023-05-16T01:28:16;8.98;;;1.63;;
60372;SDS011;46216;52.220;5.134;2023-05-16T01:30:42;17.88;;;2.83;;
60372;SDS011;46216;52.220;5.134;2023-05-16T01:33:07;13.50;;;2.13;;
60372;SDS011;46216;52.220;5.134;2023-05-16T01:35:35;11.77;;;2.30;;
60372;SDS011;46216;52.220;5.134;2023-05-16T01:38:27;8.80;;;1.98;;
60372;SDS011;46216;52.220;5.134;2023-05-16T01:43:34;10.95;;;2.30;;
60372;SDS011;46216;52.220;5.134;2023-05-16T01:46:14;12.57;;;2.05;;
60372;SDS011;46216;52.220;5.134;2023-05-16T01:51:41;10.00;;;2.58;;
60372;SDS011;46216;52.220;5.134;2023-05-16T01:54:10;12.63;;;2.15;;
60372;SDS011;46216;52.220;5.134;2023-05-16T01:56:37;10.65;;;1.90;;
60372;SDS011;46216;52.220;5.134;2023-05-16T01:59:03;11.52;;;1.98;;
60372;SDS011;46216;52.220;5.134;2023-05-16T02:01:29;12.30;;;2.72;;
60372;SDS011;46216;52.220;5.134;2023-05-16T02:03:57;14.18;;;2.05;;
60372;SDS011;46216;52.220;5.134;2023-05-16T02:06:22;12.00;;;2.30;;
60372;SDS011;46216;52.220;5.134;2023-05-16T02:08:48;8.63;;;1.60;;
60372;SDS011;46216;52.220;5.134;2023-05-16T02:11:13;14.27;;;2.47;;
60372;SDS011;46216;52.220;5.134;2023-05-16T02:13:39;11.35;;;2.08;;
60372;SDS011;46216;52.220;5.134;2023-05-16T02:16:04;12.32;;;2.85;;
60372;SDS011;46216;52.220;5.134;2023-05-16T02:18:30;10.05;;;1.67;;
60372;SDS011;46216;52.220;5.134;2023-05-16T02:20:55;11.20;;;2.13;;
60372;SDS011;46216;52.220;5.134;2023-05-16T02:23:21;10.60;;;1.95;;
60372;SDS011;46216;52.220;5.134;2023-05-16T02:25:46;10.60;;;2.22;;
60372;SDS011;46216;52.220;5.134;2023-05-16T02:28:11;11.15;;;2.22;;
60372;SDS011;46216;52.220;5.134;2023-05-16T02:30:37;14.32;;;2.15;;
60372;SDS011;46216;52.220;5.134;2023-05-16T02:33:02;11.57;;;2.08;;
60372;SDS011;46216;52.220;5.134;2023-05-16T02:35:27;10.57;;;2.00;;
60372;SDS011;46216;52.220;5.134;2023-05-16T02:37:53;12.40;;;2.10;;
60372;SDS011;46216;52.220;5.134;2023-05-16T02:40:19;10.07;;;2.20;;
60372;SDS011;46216;52.220;5.134;2023-05-16T02:42:44;9.35;;;2.03;;
60372;SDS011;46216;52.220;5.134;2023-05-16T02:45:10;7.55;;;1.75;;
60372;SDS011;46216;52.220;5.134;2023-05-16T02:47:35;12.40;;;2.47;;
60372;SDS011;46216;52.220;5.134;2023-05-16T02:50:01;10.68;;;2.17;;
60372;SDS011;46216;52.220;5.134;2023-05-16T02:52:27;12.25;;;2.35;;
60372;SDS011;46216;52.220;5.134;2023-05-16T02:54:52;12.02;;;2.15;;
60372;SDS011;46216;52.220;5.134;2023-05-16T02:57:18;10.30;;;1.65;;
60372;SDS011;46216;52.220;5.134;2023-05-16T02:59:44;13.00;;;2.00;;
60372;SDS011;46216;52.220;5.134;2023-05-16T03:02:09;9.35;;;1.70;;
60372;SDS011;46216;52.220;5.134;2023-05-16T03:04:35;16.10;;;2.17;;
60372;SDS011;46216;52.220;5.134;2023-05-16T03:07:01;12.68;;;2.30;;
60372;SDS011;46216;52.220;5.134;2023-05-16T03:09:26;9.07;;;2.17;;
60372;SDS011;46216;52.220;5.134;2023-05-16T03:11:51;10.82;;;2.17;;
60372;SDS011;46216;52.220;5.134;2023-05-16T03:14:17;12.38;;;2.22;;
60372;SDS011;46216;52.220;5.134;2023-05-16T03:16:42;11.13;;;2.08;;
60372;SDS011;46216;52.220;5.134;2023-05-16T03:19:08;6.80;;;1.90;;
60372;SDS011;46216;52.220;5.134;2023-05-16T03:21:34;14.88;;;2.00;;
60372;SDS011;46216;52.220;5.134;2023-05-16T03:24:01;10.40;;;1.85;;
60372;SDS011;46216;52.220;5.134;2023-05-16T03:26:27;11.85;;;2.53;;
60372;SDS011;46216;52.220;5.134;2023-05-16T03:28:53;7.10;;;1.85;;
60372;SDS011;46216;52.220;5.134;2023-05-16T03:31:18;13.95;;;2.78;;
60372;SDS011;46216;52.220;5.134;2023-05-16T03:33:43;11.75;;;2.15;;
60372;SDS011;46216;52.220;5.134;2023-05-16T03:36:09;6.32;;;1.75;;
60372;SDS011;46216;52.220;5.134;2023-05-16T03:38:35;10.15;;;1.73;;
60372;SDS011;46216;52.220;5.134;2023-05-16T03:41:01;6.45;;;2.10;;
60372;SDS011;46216;52.220;5.134;2023-05-16T03:43:26;10.32;;;2.03;;
60372;SDS011;46216;52.220;5.134;2023-05-16T03:45:51;9.45;;;2.05;;
60372;SDS011;46216;52.220;5.134;2023-05-16T03:48:17;10.90;;;1.85;;
60372;SDS011;46216;52.220;5.134;2023-05-16T03:50:43;12.95;;;2.08;;
60372;SDS011;46216;52.220;5.134;2023-05-16T03:53:09;8.52;;;1.92;;
60372;SDS011;46216;52.220;5.134;2023-05-16T03:55:35;8.07;;;1.73;;
60372;SDS011;46216;52.220;5.134;2023-05-16T03:58:01;7.57;;;1.58;;
60372;SDS011;46216;52.220;5.134;2023-05-16T04:00:26;12.85;;;2.08;;
60372;SDS011;46216;52.220;5.134;2023-05-16T04:02:52;11.25;;;2.10;;
60372;SDS011;46216;52.220;5.134;2023-05-16T04:05:17;11.02;;;2.30;;
60372;SDS011;46216;52.220;5.134;2023-05-16T04:07:43;7.90;;;2.10;;
60372;SDS011;46216;52.220;5.134;2023-05-16T04:10:08;8.23;;;1.70;;
60372;SDS011;46216;52.220;5.134;2023-05-16T04:12:34;9.43;;;2.10;;
60372;SDS011;46216;52.220;5.134;2023-05-16T04:15:01;5.55;;;1.70;;
60372;SDS011;46216;52.220;5.134;2023-05-16T04:17:27;11.63;;;1.88;;
60372;SDS011;46216;52.220;5.134;2023-05-16T04:19:52;11.32;;;1.98;;
60372;SDS011;46216;52.220;5.134;2023-05-16T04:22:19;10.65;;;2.08;;
60372;SDS011;46216;52.220;5.134;2023-05-16T04:24:47;10.18;;;2.00;;
60372;SDS011;46216;52.220;5.134;2023-05-16T04:27:13;11.43;;;2.03;;
60372;SDS011;46216;52.220;5.134;2023-05-16T04:29:38;9.90;;;2.15;;
60372;SDS011;46216;52.220;5.134;2023-05-16T04:32:03;8.50;;;2.28;;
60372;SDS011;46216;52.220;5.134;2023-05-16T04:34:30;10.65;;;2.00;;
60372;SDS011;46216;52.220;5.134;2023-05-16T04:36:58;9.05;;;2.28;;
60372;SDS011;46216;52.220;5.134;2023-05-16T04:39:23;12.40;;;2.97;;
60372;SDS011;46216;52.220;5.134;2023-05-16T04:41:49;9.93;;;2.25;;
60372;SDS011;46216;52.220;5.134;2023-05-16T04:44:14;9.82;;;2.22;;
60372;SDS011;46216;52.220;5.134;2023-05-16T04:46:39;36.67;;;25.80;;
60372;SDS011;46216;52.220;5.134;2023-05-16T04:49:05;6.75;;;2.40;;
60372;SDS011;46216;52.220;5.134;2023-05-16T04:51:30;7.22;;;1.73;;
60372;SDS011;46216;52.220;5.134;2023-05-16T04:53:57;8.45;;;1.70;;
60372;SDS011;46216;52.220;5.134;2023-05-16T04:56:23;17.83;;;2.50;;
60372;SDS011;46216;52.220;5.134;2023-05-16T04:58:48;8.65;;;1.90;;
60372;SDS011;46216;52.220;5.134;2023-05-16T05:01:14;7.07;;;1.63;;
60372;SDS011;46216;52.220;5.134;2023-05-16T05:03:39;7.45;;;2.00;;
60372;SDS011;46216;52.220;5.134;2023-05-16T05:06:05;7.97;;;2.00;;
60372;SDS011;46216;52.220;5.134;2023-05-16T05:08:30;13.57;;;1.70;;
60372;SDS011;46216;52.220;5.134;2023-05-16T05:10:57;7.28;;;1.90;;
60372;SDS011;46216;52.220;5.134;2023-05-16T05:13:22;7.35;;;1.80;;
60372;SDS011;46216;52.220;5.134;2023-05-16T05:15:48;8.85;;;2.00;;
60372;SDS011;46216;52.220;5.134;2023-05-16T05:18:14;8.75;;;1.83;;
60372;SDS011;46216;52.220;5.134;2023-05-16T05:20:40;6.40;;;1.67;;
60372;SDS011;46216;52.220;5.134;2023-05-16T05:23:05;8.65;;;2.70;;
60372;SDS011;46216;52.220;5.134;2023-05-16T05:25:31;9.93;;;1.92;;
60372;SDS011;46216;52.220;5.134;2023-05-16T05:27:57;10.13;;;2.40;;
60372;SDS011;46216;52.220;5.134;2023-05-16T05:30:23;13.23;;;2.10;;
60372;SDS011;46216;52.220;5.134;2023-05-16T05:32:48;10.50;;;2.00;;
60372;SDS011;46216;52.220;5.134;2023-05-16T05:35:13;7.07;;;2.10;;
60372;SDS011;46216;52.220;5.134;2023-05-16T05:37:39;9.85;;;2.17;;
60372;SDS011;46216;52.220;5.134;2023-05-16T05:40:05;6.70;;;2.08;;
60372;SDS011;46216;52.220;5.134;2023-05-16T05:42:31;9.50;;;2.65;;
60372;SDS011;46216;52.220;5.134;2023-05-16T05:44:56;13.73;;;1.98;;
60372;SDS011;46216;52.220;5.134;2023-05-16T05:47:22;8.30;;;2.10;;
60372;SDS011;46216;52.220;5.134;2023-05-16T05:49:47;10.70;;;2.20;;
60372;SDS011;46216;52.220;5.134;2023-05-16T05:52:14;9.88;;;2.53;;
60372;SDS011;46216;52.220;5.134;2023-05-16T05:54:39;11.48;;;1.90;;
60372;SDS011;46216;52.220;5.134;2023-05-16T05:57:05;8.98;;;1.70;;
60372;SDS011;46216;52.220;5.134;2023-05-16T05:59:30;6.72;;;1.30;;
60372;SDS011;46216;52.220;5.134;2023-05-16T06:01:56;7.15;;;1.55;;
60372;SDS011;46216;52.220;5.134;2023-05-16T06:04:21;6.72;;;1.30;;
60372;SDS011;46216;52.220;5.134;2023-05-16T06:06:47;6.97;;;1.55;;
60372;SDS011;46216;52.220;5.134;2023-05-16T06:09:12;5.75;;;1.40;;
60372;SDS011;46216;52.220;5.134;2023-05-16T06:11:39;7.88;;;1.63;;
60372;SDS011;46216;52.220;5.134;2023-05-16T06:14:04;5.32;;;1.20;;
60372;SDS011;46216;52.220;5.134;2023-05-16T06:16:30;6.72;;;1.38;;
60372;SDS011;46216;52.220;5.134;2023-05-16T06:18:55;9.50;;;1.77;;
60372;SDS011;46216;52.220;5.134;2023-05-16T06:21:21;6.25;;;1.50;;
60372;SDS011;46216;52.220;5.134;2023-05-16T06:23:46;6.78;;;1.95;;
60372;SDS011;46216;52.220;5.134;2023-05-16T06:26:11;8.68;;;1.42;;
60372;SDS011;46216;52.220;5.134;2023-05-16T06:28:37;6.00;;;1.33;;
60372;SDS011;46216;52.220;5.134;2023-05-16T06:31:05;6.70;;;1.40;;
60372;SDS011;46216;52.220;5.134;2023-05-16T06:33:30;3.88;;;0.93;;
60372;SDS011;46216;52.220;5.134;2023-05-16T06:35:55;6.03;;;1.27;;
60372;SDS011;46216;52.220;5.134;2023-05-16T06:38:21;5.63;;;1.20;;
60372;SDS011;46216;52.220;5.134;2023-05-16T06:40:46;5.90;;;1.30;;
60372;SDS011;46216;52.220;5.134;2023-05-16T06:43:14;5.25;;;1.15;;
60372;SDS011;46216;52.220;5.134;2023-05-16T06:45:40;6.57;;;1.10;;
60372;SDS011;46216;52.220;5.134;2023-05-16T06:48:05;6.80;;;1.30;;
60372;SDS011;46216;52.220;5.134;2023-05-16T06:50:31;3.78;;;1.30;;
60372;SDS011;46216;52.220;5.134;2023-05-16T06:52:57;5.55;;;1.17;;
60372;SDS011;46216;52.220;5.134;2023-05-16T06:55:22;8.07;;;1.35;;
60372;SDS011;46216;52.220;5.134;2023-05-16T06:57:47;4.40;;;1.15;;
60372;SDS011;46216;52.220;5.134;2023-05-16T07:00:13;13.20;;;1.60;;
60372;SDS011;46216;52.220;5.134;2023-05-16T07:02:39;6.60;;;1.20;;
60372;SDS011;46216;52.220;5.134;2023-05-16T07:05:05;6.45;;;1.40;;
60372;SDS011;46216;52.220;5.134;2023-05-16T07:07:33;4.95;;;1.23;;
60372;SDS011;46216;52.220;5.134;2023-05-16T07:10:00;6.30;;;1.38;;
60372;SDS011;46216;52.220;5.134;2023-05-16T07:12:25;6.18;;;1.27;;
60372;SDS011;46216;52.220;5.134;2023-05-16T07:14:50;6.35;;;1.08;;
60372;SDS011;46216;52.220;5.134;2023-05-16T07:17:16;6.13;;;1.17;;
60372;SDS011;46216;52.220;5.134;2023-05-16T07:19:41;7.10;;;0.95;;
60372;SDS011;46216;52.220;5.134;2023-05-16T07:22:07;5.22;;;1.38;;
60372;SDS011;46216;52.220;5.134;2023-05-16T07:24:32;7.22;;;1.30;;
60372;SDS011;46216;52.220;5.134;2023-05-16T07:26:58;3.70;;;1.05;;
60372;SDS011;46216;52.220;5.134;2023-05-16T07:29:23;7.10;;;1.30;;
60372;SDS011;46216;52.220;5.134;2023-05-16T07:31:49;2.92;;;1.25;;
60372;SDS011;46216;52.220;5.134;2023-05-16T07:34:15;6.00;;;1.48;;
60372;SDS011;46216;52.220;5.134;2023-05-16T07:36:41;6.72;;;1.05;;
60372;SDS011;46216;52.220;5.134;2023-05-16T07:39:06;7.43;;;1.35;;
60372;SDS011;46216;52.220;5.134;2023-05-16T07:41:31;7.07;;;1.05;;
60372;SDS011;46216;52.220;5.134;2023-05-16T07:43:57;7.57;;;1.55;;
60372;SDS011;46216;52.220;5.134;2023-05-16T07:46:22;4.72;;;1.35;;
60372;SDS011;46216;52.220;5.134;2023-05-16T07:48:47;4.65;;;1.17;;
60372;SDS011;46216;52.220;5.134;2023-05-16T07:51:13;6.53;;;1.13;;
60372;SDS011;46216;52.220;5.134;2023-05-16T07:53:38;5.43;;;1.55;;
60372;SDS011;46216;52.220;5.134;2023-05-16T07:56:04;4.97;;;1.40;;
60372;SDS011;46216;52.220;5.134;2023-05-16T07:58:31;5.35;;;1.17;;
60372;SDS011;46216;52.220;5.134;2023-05-16T08:00:57;3.10;;;0.90;;
60372;SDS011;46216;52.220;5.134;2023-05-16T08:03:22;4.70;;;1.00;;
60372;SDS011;46216;52.220;5.134;2023-05-16T08:05:48;5.32;;;1.17;;
60372;SDS011;46216;52.220;5.134;2023-05-16T08:08:13;5.47;;;1.13;;
60372;SDS011;46216;52.220;5.134;2023-05-16T08:10:39;6.85;;;1.35;;
60372;SDS011;46216;52.220;5.134;2023-05-16T08:13:04;4.40;;;1.00;;
60372;SDS011;46216;52.220;5.134;2023-05-16T08:15:30;5.07;;;1.10;;
60372;SDS011;46216;52.220;5.134;2023-05-16T08:17:58;3.35;;;1.00;;
60372;SDS011;46216;52.220;5.134;2023-05-16T08:20:24;5.38;;;1.25;;
60372;SDS011;46216;52.220;5.134;2023-05-16T08:22:50;3.45;;;1.00;;
60372;SDS011;46216;52.220;5.134;2023-05-16T08:25:16;4.47;;;1.08;;
60372;SDS011;46216;52.220;5.134;2023-05-16T08:27:41;5.40;;;1.08;;
60372;SDS011;46216;52.220;5.134;2023-05-16T08:30:09;3.30;;;1.10;;
60372;SDS011;46216;52.220;5.134;2023-05-16T08:32:35;7.72;;;1.13;;
60372;SDS011;46216;52.220;5.134;2023-05-16T08:35:01;7.45;;;1.45;;
60372;SDS011;46216;52.220;5.134;2023-05-16T08:37:26;4.22;;;1.17;;
60372;SDS011;46216;52.220;5.134;2023-05-16T08:39:52;3.00;;;1.10;;
60372;SDS011;46216;52.220;5.134;2023-05-16T08:42:17;6.35;;;1.10;;
60372;SDS011;46216;52.220;5.134;2023-05-16T08:44:42;5.20;;;1.33;;
60372;SDS011;46216;52.220;5.134;2023-05-16T08:47:10;7.30;;;1.10;;
60372;SDS011;46216;52.220;5.134;2023-05-16T08:49:38;5.03;;;1.45;;
60372;SDS011;46216;52.220;5.134;2023-05-16T08:52:05;2.72;;;0.90;;
60372;SDS011;46216;52.220;5.134;2023-05-16T08:54:33;6.53;;;1.20;;
60372;SDS011;46216;52.220;5.134;2023-05-16T08:57:00;5.40;;;1.17;;
60372;SDS011;46216;52.220;5.134;2023-05-16T08:59:26;3.80;;;0.95;;
60372;SDS011;46216;52.220;5.134;2023-05-16T09:01:52;8.25;;;1.30;;
60372;SDS011;46216;52.220;5.134;2023-05-16T09:04:19;4.00;;;0.98;;
60372;SDS011;46216;52.220;5.134;2023-05-16T09:06:45;5.72;;;1.33;;
60372;SDS011;46216;52.220;5.134;2023-05-16T09:09:12;3.03;;;1.08;;
60372;SDS011;46216;52.220;5.134;2023-05-16T09:11:38;5.03;;;1.10;;
60372;SDS011;46216;52.220;5.134;2023-05-16T09:14:03;3.30;;;1.10;;
60372;SDS011;46216;52.220;5.134;2023-05-16T09:16:32;3.50;;;1.08;;
60372;SDS011;46216;52.220;5.134;2023-05-16T09:18:58;5.20;;;1.33;;
60372;SDS011;46216;52.220;5.134;2023-05-16T09:21:28;4.47;;;1.20;;
60372;SDS011;46216;52.220;5.134;2023-05-16T09:23:56;5.40;;;1.10;;
60372;SDS011;46216;52.220;5.134;2023-05-16T09:26:26;5.70;;;1.30;;
60372;SDS011;46216;52.220;5.134;2023-05-16T09:28:52;4.80;;;1.20;;
60372;SDS011;46216;52.220;5.134;2023-05-16T09:33:51;5.13;;;1.13;;
60372;SDS011;46216;52.220;5.134;2023-05-16T09:36:16;5.38;;;1.05;;
60372;SDS011;46216;52.220;5.134;2023-05-16T09:38:42;8.05;;;1.35;;
60372;SDS011;46216;52.220;5.134;2023-05-16T09:41:08;6.13;;;1.13;;
60372;SDS011;46216;52.220;5.134;2023-05-16T09:43:37;4.47;;;1.02;;
60372;SDS011;46216;52.220;5.134;2023-05-16T09:46:03;5.15;;;1.02;;
60372;SDS011;46216;52.220;5.134;2023-05-16T09:48:28;6.38;;;1.17;;
60372;SDS011;46216;52.220;5.134;2023-05-16T09:50:54;5.80;;;1.20;;
60372;SDS011;46216;52.220;5.134;2023-05-16T09:53:27;4.18;;;1.05;;
60372;SDS011;46216;52.220;5.134;2023-05-16T09:56:01;6.00;;;1.42;;
60372;SDS011;46216;52.220;5.134;2023-05-16T09:58:32;6.15;;;1.50;;
60372;SDS011;46216;52.220;5.134;2023-05-16T10:00:59;6.85;;;1.45;;
60372;SDS011;46216;52.220;5.134;2023-05-16T10:03:25;5.28;;;1.40;;
60372;SDS011;46216;52.220;5.134;2023-05-16T10:05:51;3.95;;;1.20;;
60372;SDS011;46216;52.220;5.134;2023-05-16T10:08:21;3.30;;;1.13;;
60372;SDS011;46216;52.220;5.134;2023-05-16T10:10:53;4.13;;;1.00;;
60372;SDS011;46216;52.220;5.134;2023-05-16T10:13:20;8.07;;;1.20;;
60372;SDS011;46216;52.220;5.134;2023-05-16T10:15:47;3.65;;;1.20;;
60372;SDS011;46216;52.220;5.134;2023-05-16T10:18:13;5.80;;;1.10;;
60372;SDS011;46216;52.220;5.134;2023-05-16T10:20:42;3.20;;;1.05;;
60372;SDS011;46216;52.220;5.134;2023-05-16T10:23:09;5.55;;;0.95;;
60372;SDS011;46216;52.220;5.134;2023-05-16T10:25:40;4.85;;;1.00;;
60372;SDS011;46216;52.220;5.134;2023-05-16T10:28:06;4.25;;;1.17;;
60372;SDS011;46216;52.220;5.134;2023-05-16T10:30:33;5.20;;;1.17;;
60372;SDS011;46216;52.220;5.134;2023-05-16T10:33:00;5.03;;;1.10;;
60372;SDS011;46216;52.220;5.134;2023-05-16T10:35:26;2.75;;;0.90;;
60372;SDS011;46216;52.220;5.134;2023-05-16T10:37:52;3.53;;;0.93;;
60372;SDS011;46216;52.220;5.134;2023-05-16T10:40:18;3.05;;;1.00;;
60372;SDS011;46216;52.220;5.134;2023-05-16T10:42:54;3.83;;;1.10;;
60372;SDS011;46216;52.220;5.134;2023-05-16T10:45:27;5.78;;;1.10;;
60372;SDS011;46216;52.220;5.134;2023-05-16T10:47:56;4.20;;;1.05;;
60372;SDS011;46216;52.220;5.134;2023-05-16T10:50:56;3.83;;;0.95;;
60372;SDS011;46216;52.220;5.134;2023-05-16T10:55:44;3.15;;;0.80;;
60372;SDS011;46216;52.220;5.134;2023-05-16T10:58:17;5.15;;;1.38;;
60372;SDS011;46216;52.220;5.134;2023-05-16T11:00:43;3.60;;;0.90;;
60372;SDS011;46216;52.220;5.134;2023-05-16T11:03:18;2.63;;;0.93;;
60372;SDS011;46216;52.220;5.134;2023-05-16T11:05:50;3.33;;;1.10;;
60372;SDS011;46216;52.220;5.134;2023-05-16T11:08:18;4.68;;;1.02;;
60372;SDS011;46216;52.220;5.134;2023-05-16T11:10:43;2.42;;;0.80;;
60372;SDS011;46216;52.220;5.134;2023-05-16T11:13:08;4.45;;;0.80;;
60372;SDS011;46216;52.220;5.134;2023-05-16T11:15:34;3.20;;;1.00;;
60372;SDS011;46216;52.220;5.134;2023-05-16T11:18:06;4.28;;;0.93;;
60372;SDS011;46216;52.220;5.134;2023-05-16T11:20:36;3.75;;;0.98;;
60372;SDS011;46216;52.220;5.134;2023-05-16T11:25:47;3.55;;;0.90;;
60372;SDS011;46216;52.220;5.134;2023-05-16T11:28:15;3.20;;;0.95;;
60372;SDS011;46216;52.220;5.134;2023-05-16T11:30:42;5.45;;;0.90;;
60372;SDS011;46216;52.220;5.134;2023-05-16T11:33:10;3.65;;;0.90;;
60372;SDS011;46216;52.220;5.134;2023-05-16T11:35:36;4.07;;;1.15;;
60372;SDS011;46216;52.220;5.134;2023-05-16T11:38:02;4.13;;;1.02;;
60372;SDS011;46216;52.220;5.134;2023-05-16T11:40:28;4.53;;;1.10;;
60372;SDS011;46216;52.220;5.134;2023-05-16T11:42:54;3.92;;;1.00;;
60372;SDS011;46216;52.220;5.134;2023-05-16T11:45:24;3.25;;;1.10;;
60372;SDS011;46216;52.220;5.134;2023-05-16T11:47:49;5.05;;;1.20;;
60372;SDS011;46216;52.220;5.134;2023-05-16T11:50:19;6.55;;;1.30;;
60372;SDS011;46216;52.220;5.134;2023-05-16T11:52:48;2.97;;;0.98;;
60372;SDS011;46216;52.220;5.134;2023-05-16T11:55:18;3.22;;;1.10;;
60372;SDS011;46216;52.220;5.134;2023-05-16T11:57:45;2.83;;;0.93;;
60372;SDS011;46216;52.220;5.134;2023-05-16T12:02:46;3.42;;;1.10;;
60372;SDS011;46216;52.220;5.134;2023-05-16T12:05:13;6.20;;;1.23;;
60372;SDS011;46216;52.220;5.134;2023-05-16T12:07:41;5.65;;;1.20;;
60372;SDS011;46216;52.220;5.134;2023-05-16T12:10:09;5.72;;;1.15;;
60372;SDS011;46216;52.220;5.134;2023-05-16T12:12:36;6.68;;;1.10;;
60372;SDS011;46216;52.220;5.134;2023-05-16T12:15:03;4.88;;;1.20;;
60372;SDS011;46216;52.220;5.134;2023-05-16T12:17:30;3.97;;;1.20;;
60372;SDS011;46216;52.220;5.134;2023-05-16T12:19:57;5.53;;;1.15;;
60372;SDS011;46216;52.220;5.134;2023-05-16T12:22:24;3.17;;;1.00;;
60372;SDS011;46216;52.220;5.134;2023-05-16T12:24:51;4.63;;;1.15;;
60372;SDS011;46216;52.220;5.134;2023-05-16T12:27:25;3.83;;;1.00;;
60372;SDS011;46216;52.220;5.134;2023-05-16T12:29:51;4.60;;;1.13;;
60372;SDS011;46216;52.220;5.134;2023-05-16T12:32:18;4.88;;;1.10;;
60372;SDS011;46216;52.220;5.134;2023-05-16T12:34:50;6.03;;;1.20;;
60372;SDS011;46216;52.220;5.134;2023-05-16T12:37:17;4.55;;;0.95;;
60372;SDS011;46216;52.220;5.134;2023-05-16T12:39:43;3.45;;;1.15;;
60372;SDS011;46216;52.220;5.134;2023-05-16T12:42:11;4.47;;;1.30;;
60372;SDS011;46216;52.220;5.134;2023-05-16T12:44:37;5.18;;;1.10;;
60372;SDS011;46216;52.220;5.134;2023-05-16T12:47:03;3.83;;;1.08;;
60372;SDS011;46216;52.220;5.134;2023-05-16T12:49:36;4.05;;;1.25;;
60372;SDS011;46216;52.220;5.134;2023-05-16T12:52:08;4.50;;;1.20;;
60372;SDS011;46216;52.220;5.134;2023-05-16T12:54:41;4.18;;;0.98;;
60372;SDS011;46216;52.220;5.134;2023-05-16T12:57:07;3.83;;;0.90;;
60372;SDS011;46216;52.220;5.134;2023-05-16T12:59:34;4.57;;;1.27;;
60372;SDS011;46216;52.220;5.134;2023-05-16T13:01:59;3.47;;;0.85;;
60372;SDS011;46216;52.220;5.134;2023-05-16T13:04:24;5.53;;;0.90;;
60372;SDS011;46216;52.220;5.134;2023-05-16T13:06:50;5.65;;;1.13;;
60372;SDS011;46216;52.220;5.134;2023-05-16T13:09:15;4.85;;;1.42;;
60372;SDS011;46216;52.220;5.134;2023-05-16T13:11:42;5.65;;;1.30;;
60372;SDS011;46216;52.220;5.134;2023-05-16T13:14:07;2.25;;;1.00;;
60372;SDS011;46216;52.220;5.134;2023-05-16T13:16:32;5.80;;;1.25;;
60372;SDS011;46216;52.220;5.134;2023-05-16T13:18:58;7.88;;;1.20;;
60372;SDS011;46216;52.220;5.134;2023-05-16T13:21:23;5.38;;;1.05;;
60372;SDS011;46216;52.220;5.134;2023-05-16T13:23:49;3.80;;;1.08;;
60372;SDS011;46216;52.220;5.134;2023-05-16T13:26:14;3.58;;;1.17;;
60372;SDS011;46216;52.220;5.134;2023-05-16T13:28:39;4.40;;;1.50;;
60372;SDS011;46216;52.220;5.134;2023-05-16T13:31:05;4.45;;;0.90;;
60372;SDS011;46216;52.220;5.134;2023-05-16T13:33:31;3.70;;;1.00;;
60372;SDS011;46216;52.220;5.134;2023-05-16T13:35:57;5.78;;;1.10;;
60372;SDS011;46216;52.220;5.134;2023-05-16T13:38:22;4.70;;;1.40;;
60372;SDS011;46216;52.220;5.134;2023-05-16T13:40:48;4.63;;;1.23;;
60372;SDS011;46216;52.220;5.134;2023-05-16T13:43:13;4.38;;;1.20;;
60372;SDS011;46216;52.220;5.134;2023-05-16T13:45:39;4.82;;;1.15;;
60372;SDS011;46216;52.220;5.134;2023-05-16T13:48:05;4.97;;;1.08;;
60372;SDS011;46216;52.220;5.134;2023-05-16T13:50:31;4.75;;;1.30;;
60372;SDS011;46216;52.220;5.134;2023-05-16T13:52:57;6.40;;;1.30;;
60372;SDS011;46216;52.220;5.134;2023-05-16T13:55:22;3.85;;;1.13;;
60372;SDS011;46216;52.220;5.134;2023-05-16T13:57:48;3.70;;;1.23;;
60372;SDS011;46216;52.220;5.134;2023-05-16T14:00:14;7.43;;;1.10;;
60372;SDS011;46216;52.220;5.134;2023-05-16T14:02:39;4.20;;;1.10;;
60372;SDS011;46216;52.220;5.134;2023-05-16T14:05:06;2.65;;;0.85;;
60372;SDS011;46216;52.220;5.134;2023-05-16T14:07:32;5.25;;;1.00;;
60372;SDS011;46216;52.220;5.134;2023-05-16T14:09:57;3.70;;;1.08;;
60372;SDS011;46216;52.220;5.134;2023-05-16T14:12:23;6.80;;;1.00;;
60372;SDS011;46216;52.220;5.134;2023-05-16T14:14:48;7.15;;;1.40;;
60372;SDS011;46216;52.220;5.134;2023-05-16T14:17:14;4.72;;;1.15;;
60372;SDS011;46216;52.220;5.134;2023-05-16T14:19:39;6.13;;;1.42;;
60372;SDS011;46216;52.220;5.134;2023-05-16T14:22:05;5.15;;;1.10;;
60372;SDS011;46216;52.220;5.134;2023-05-16T14:24:30;3.00;;;1.10;;
60372;SDS011;46216;52.220;5.134;2023-05-16T14:26:55;4.07;;;1.35;;
60372;SDS011;46216;52.220;5.134;2023-05-16T14:29:21;4.53;;;1.08;;
60372;SDS011;46216;52.220;5.134;2023-05-16T14:31:46;5.25;;;1.27;;
60372;SDS011;46216;52.220;5.134;2023-05-16T14:34:12;4.70;;;1.30;;
60372;SDS011;46216;52.220;5.134;2023-05-16T14:36:37;6.25;;;1.55;;
60372;SDS011;46216;52.220;5.134;2023-05-16T14:39:03;4.40;;;1.23;;
60372;SDS011;46216;52.220;5.134;2023-05-16T14:41:28;3.22;;;0.73;;
60372;SDS011;46216;52.220;5.134;2023-05-16T14:43:54;4.78;;;1.15;;
60372;SDS011;46216;52.220;5.134;2023-05-16T14:46:20;4.35;;;0.98;;
60372;SDS011;46216;52.220;5.134;2023-05-16T14:48:45;2.10;;;0.70;;
60372;SDS011;46216;52.220;5.134;2023-05-16T14:51:10;2.17;;;0.90;;
60372;SDS011;46216;52.220;5.134;2023-05-16T14:53:36;4.07;;;1.10;;
60372;SDS011;46216;52.220;5.134;2023-05-16T14:56:01;3.55;;;1.20;;
60372;SDS011;46216;52.220;5.134;2023-05-16T14:58:27;4.60;;;1.00;;
60372;SDS011;46216;52.220;5.134;2023-05-16T15:00:53;3.83;;;0.90;;
60372;SDS011;46216;52.220;5.134;2023-05-16T15:03:19;5.45;;;1.05;;